This is the latest recevied weather packets stored in our database for station/object KR8N. If no packets are shown the sender has not sent any weather packets the latest 10 day(s).
| Time | Temp. | Humidity | Pressure | Rain* | Wind** | Luminosity | Snow |
|---|---|---|---|---|---|---|---|
| 1777909028 | 15.56° C | 57% | 1018.4 hPa | 0 mm | - | 953 W/m² | - |
| 1777908725 | 15° C | 63% | 1018.4 hPa | 0 mm | - | 652 W/m² | - |
| 1777908422 | 15° C | 61% | 1018.3 hPa | 0 mm | - | 493 W/m² | - |
| 1777908119 | 13.89° C | 65% | 1018.2 hPa | 0 mm | - | 607 W/m² | - |
| 1777907815 | 13.89° C | 65% | 1018.5 hPa | 0 mm | - | 353 W/m² | - |
| 1777907510 | 13.89° C | 61% | 1018.6 hPa | 0 mm | - | 209 W/m² | - |
| 1777907207 | 14.44° C | 56% | 1018.7 hPa | 0 mm | - | 80 W/m² | - |
| 1777906904 | 15° C | 52% | 1018.4 hPa | 0 mm | - | 148 W/m² | - |
| 1777906602 | 15° C | 52% | 1018.3 hPa | 0 mm | - | 299 W/m² | - |
| 1777906297 | 15.56° C | 49% | 1018 hPa | 0 mm | - | 240 W/m² | - |
| 1777905994 | 15° C | 51% | 1018.4 hPa | 0 mm | - | 706 W/m² | - |
| 1777905691 | 15.56° C | 50% | 1018.2 hPa | 0 mm | - | 265 W/m² | - |
| 1777905387 | 15.56° C | 52% | 1017.9 hPa | 0 mm | - | 335 W/m² | - |
| 1777905085 | 14.44° C | 53% | 1018 hPa | 0 mm | - | 557 W/m² | - |
| 1777904782 | 14.44° C | 53% | 1018 hPa | 0 mm | - | 374 W/m² | - |
| 1777904479 | 13.89° C | 53% | 1017.9 hPa | 0 mm | - | 266 W/m² | - |
| 1777904175 | 13.89° C | 53% | 1018 hPa | 0 mm | - | 234 W/m² | - |
| 1777903873 | 13.89° C | 52% | 1018.2 hPa | 0 mm | - | 214 W/m² | - |
| 1777903569 | 13.89° C | 54% | 1018.2 hPa | 0 mm | - | 226 W/m² | - |
| 1777903265 | 13.89° C | 52% | 1018.4 hPa | 0 mm | - | 264 W/m² | - |
| 1777902962 | 13.89° C | 54% | 1018.3 hPa | 0 mm | - | 293 W/m² | - |
| 1777902659 | 13.33° C | 56% | 1018.5 hPa | 0 mm | - | 341 W/m² | - |
| 1777902356 | 13.33° C | 55% | 1018.6 hPa | 0 mm | - | 317 W/m² | - |
| 1777902053 | 12.78° C | 55% | 1018.5 hPa | 0 mm | - | 285 W/m² | - |
| 1777901752 | 12.78° C | 57% | 1018.7 hPa | 0 mm | - | 280 W/m² | - |
* Rain latest hour (hover to see other rain measurements)
** Current wind speed in m/s (hover to see current wind gust speed)